sensor_id;sensor_type;location;lat;lon;timestamp;P1;durP1;ratioP1;P2;durP2;ratioP2
66663;SDS011;59683;51.428;-1.994;2023-04-16T07:22:42;9.45;;;3.28;;
66663;SDS011;59683;51.428;-1.994;2023-04-16T07:28:53;16.95;;;3.78;;
66663;SDS011;59683;51.428;-1.994;2023-04-16T07:31:19;7.77;;;2.10;;
66663;SDS011;59683;51.428;-1.994;2023-04-16T07:33:44;6.47;;;2.33;;
66663;SDS011;59683;51.428;-1.994;2023-04-16T07:36:10;10.30;;;2.57;;
66663;SDS011;59683;51.428;-1.994;2023-04-16T07:38:35;8.10;;;1.93;;
66663;SDS011;59683;51.428;-1.994;2023-04-16T07:41:00;8.23;;;2.23;;
66663;SDS011;59683;51.428;-1.994;2023-04-16T07:43:26;9.20;;;3.07;;
66663;SDS011;59683;51.428;-1.994;2023-04-16T07:45:51;6.10;;;2.03;;
66663;SDS011;59683;51.428;-1.994;2023-04-16T07:48:17;9.90;;;2.50;;
66663;SDS011;59683;51.428;-1.994;2023-04-16T07:50:42;6.53;;;2.23;;
66663;SDS011;59683;51.428;-1.994;2023-04-16T07:53:07;9.87;;;2.50;;
66663;SDS011;59683;51.428;-1.994;2023-04-16T07:55:33;11.00;;;2.37;;
66663;SDS011;59683;51.428;-1.994;2023-04-16T07:57:59;7.73;;;2.20;;
66663;SDS011;59683;51.428;-1.994;2023-04-16T08:00:24;10.43;;;2.43;;
66663;SDS011;59683;51.428;-1.994;2023-04-16T08:02:50;7.47;;;1.90;;
66663;SDS011;59683;51.428;-1.994;2023-04-16T08:05:16;8.03;;;2.50;;
66663;SDS011;59683;51.428;-1.994;2023-04-16T08:07:41;9.67;;;2.17;;
66663;SDS011;59683;51.428;-1.994;2023-04-16T08:10:07;8.70;;;2.40;;
66663;SDS011;59683;51.428;-1.994;2023-04-16T08:12:33;11.80;;;2.63;;
66663;SDS011;59683;51.428;-1.994;2023-04-16T08:14:59;6.40;;;2.00;;
66663;SDS011;59683;51.428;-1.994;2023-04-16T08:17:24;8.00;;;1.60;;
66663;SDS011;59683;51.428;-1.994;2023-04-16T08:19:50;10.57;;;2.37;;
66663;SDS011;59683;51.428;-1.994;2023-04-16T08:22:15;6.00;;;2.17;;
66663;SDS011;59683;51.428;-1.994;2023-04-16T08:24:40;11.13;;;3.17;;
66663;SDS011;59683;51.428;-1.994;2023-04-16T08:27:06;6.40;;;1.40;;
66663;SDS011;59683;51.428;-1.994;2023-04-16T08:29:31;8.43;;;1.70;;
66663;SDS011;59683;51.428;-1.994;2023-04-16T08:32:00;5.00;;;1.40;;
66663;SDS011;59683;51.428;-1.994;2023-04-16T08:34:26;8.67;;;2.20;;
66663;SDS011;59683;51.428;-1.994;2023-04-16T08:36:51;8.17;;;1.43;;
66663;SDS011;59683;51.428;-1.994;2023-04-16T08:39:16;8.13;;;1.67;;
66663;SDS011;59683;51.428;-1.994;2023-04-16T08:41:42;6.03;;;1.67;;
66663;SDS011;59683;51.428;-1.994;2023-04-16T08:44:16;6.13;;;1.60;;
66663;SDS011;59683;51.428;-1.994;2023-04-16T08:46:45;11.43;;;1.70;;
66663;SDS011;59683;51.428;-1.994;2023-04-16T08:49:14;12.40;;;2.00;;
66663;SDS011;59683;51.428;-1.994;2023-04-16T08:51:47;7.73;;;1.60;;
66663;SDS011;59683;51.428;-1.994;2023-04-16T08:54:16;6.93;;;1.40;;
66663;SDS011;59683;51.428;-1.994;2023-04-16T08:56:47;10.27;;;1.73;;
66663;SDS011;59683;51.428;-1.994;2023-04-16T08:59:13;8.00;;;1.70;;
66663;SDS011;59683;51.428;-1.994;2023-04-16T09:01:42;5.27;;;1.70;;
66663;SDS011;59683;51.428;-1.994;2023-04-16T09:04:07;4.77;;;1.30;;
66663;SDS011;59683;51.428;-1.994;2023-04-16T09:06:33;5.03;;;1.63;;
66663;SDS011;59683;51.428;-1.994;2023-04-16T09:08:59;7.10;;;2.63;;
66663;SDS011;59683;51.428;-1.994;2023-04-16T09:11:28;9.93;;;2.07;;
66663;SDS011;59683;51.428;-1.994;2023-04-16T09:13:54;5.47;;;2.33;;
66663;SDS011;59683;51.428;-1.994;2023-04-16T09:16:21;8.83;;;2.10;;
66663;SDS011;59683;51.428;-1.994;2023-04-16T09:18:48;7.10;;;2.10;;
66663;SDS011;59683;51.428;-1.994;2023-04-16T09:21:14;5.80;;;2.03;;
66663;SDS011;59683;51.428;-1.994;2023-04-16T09:23:39;5.23;;;1.97;;
66663;SDS011;59683;51.428;-1.994;2023-04-16T09:26:06;8.47;;;1.70;;
66663;SDS011;59683;51.428;-1.994;2023-04-16T09:28:41;6.30;;;1.77;;
66663;SDS011;59683;51.428;-1.994;2023-04-16T09:33:43;3.37;;;0.90;;
66663;SDS011;59683;51.428;-1.994;2023-04-16T09:36:24;5.60;;;0.97;;
66663;SDS011;59683;51.428;-1.994;2023-04-16T09:38:51;2.43;;;1.10;;
66663;SDS011;59683;51.428;-1.994;2023-04-16T09:41:18;4.93;;;1.93;;
66663;SDS011;59683;51.428;-1.994;2023-04-16T09:43:55;6.80;;;2.00;;
66663;SDS011;59683;51.428;-1.994;2023-04-16T09:49:29;3.57;;;1.50;;
66663;SDS011;59683;51.428;-1.994;2023-04-16T09:51:59;5.68;;;1.67;;
66663;SDS011;59683;51.428;-1.994;2023-04-16T09:54:24;7.17;;;2.17;;
66663;SDS011;59683;51.428;-1.994;2023-04-16T09:56:50;5.07;;;2.00;;
66663;SDS011;59683;51.428;-1.994;2023-04-16T09:59:19;4.87;;;1.97;;
66663;SDS011;59683;51.428;-1.994;2023-04-16T10:01:45;6.13;;;1.98;;
66663;SDS011;59683;51.428;-1.994;2023-04-16T10:04:13;6.50;;;1.90;;
66663;SDS011;59683;51.428;-1.994;2023-04-16T10:06:39;5.93;;;2.10;;
66663;SDS011;59683;51.428;-1.994;2023-04-16T10:09:05;5.27;;;2.30;;
66663;SDS011;59683;51.428;-1.994;2023-04-16T10:11:32;29.50;;;3.60;;
66663;SDS011;59683;51.428;-1.994;2023-04-16T10:13:58;5.13;;;1.80;;
66663;SDS011;59683;51.428;-1.994;2023-04-16T10:16:24;5.03;;;1.27;;
66663;SDS011;59683;51.428;-1.994;2023-04-16T10:18:50;7.23;;;1.60;;
66663;SDS011;59683;51.428;-1.994;2023-04-16T10:21:17;6.77;;;1.67;;
66663;SDS011;59683;51.428;-1.994;2023-04-16T10:23:43;5.03;;;1.10;;
66663;SDS011;59683;51.428;-1.994;2023-04-16T10:26:08;4.33;;;1.40;;
66663;SDS011;59683;51.428;-1.994;2023-04-16T10:28:34;7.20;;;1.30;;
66663;SDS011;59683;51.428;-1.994;2023-04-16T10:31:01;4.23;;;1.37;;
66663;SDS011;59683;51.428;-1.994;2023-04-16T10:33:29;8.40;;;1.80;;
66663;SDS011;59683;51.428;-1.994;2023-04-16T10:38:32;8.33;;;2.50;;
66663;SDS011;59683;51.428;-1.994;2023-04-16T10:40:58;5.17;;;1.50;;
66663;SDS011;59683;51.428;-1.994;2023-04-16T10:43:26;8.23;;;1.13;;
66663;SDS011;59683;51.428;-1.994;2023-04-16T10:45:53;6.43;;;1.67;;
66663;SDS011;59683;51.428;-1.994;2023-04-16T10:48:19;8.97;;;2.73;;
66663;SDS011;59683;51.428;-1.994;2023-04-16T10:50:55;14.57;;;7.03;;
66663;SDS011;59683;51.428;-1.994;2023-04-16T10:53:25;7.57;;;1.67;;
66663;SDS011;59683;51.428;-1.994;2023-04-16T10:58:42;5.40;;;1.00;;
66663;SDS011;59683;51.428;-1.994;2023-04-16T11:01:11;5.60;;;1.30;;
66663;SDS011;59683;51.428;-1.994;2023-04-16T11:15:02;12.07;;;1.40;;
66663;SDS011;59683;51.428;-1.994;2023-04-16T11:17:35;6.97;;;1.63;;
66663;SDS011;59683;51.428;-1.994;2023-04-16T11:20:01;7.60;;;2.80;;
66663;SDS011;59683;51.428;-1.994;2023-04-16T11:22:27;6.33;;;1.60;;
66663;SDS011;59683;51.428;-1.994;2023-04-16T11:24:54;4.93;;;1.70;;
66663;SDS011;59683;51.428;-1.994;2023-04-16T11:27:21;7.70;;;1.93;;
66663;SDS011;59683;51.428;-1.994;2023-04-16T11:30:02;7.87;;;1.50;;
66663;SDS011;59683;51.428;-1.994;2023-04-16T11:32:31;7.00;;;1.30;;
66663;SDS011;59683;51.428;-1.994;2023-04-16T11:34:57;4.37;;;1.20;;
66663;SDS011;59683;51.428;-1.994;2023-04-16T11:37:30;5.05;;;1.08;;
66663;SDS011;59683;51.428;-1.994;2023-04-16T11:39:58;7.57;;;1.57;;
66663;SDS011;59683;51.428;-1.994;2023-04-16T11:42:23;4.40;;;0.70;;
66663;SDS011;59683;51.428;-1.994;2023-04-16T11:44:51;1.37;;;0.60;;
66663;SDS011;59683;51.428;-1.994;2023-04-16T11:47:18;6.23;;;1.00;;
66663;SDS011;59683;51.428;-1.994;2023-04-16T11:49:43;3.77;;;0.90;;
66663;SDS011;59683;51.428;-1.994;2023-04-16T11:52:09;5.77;;;0.90;;
66663;SDS011;59683;51.428;-1.994;2023-04-16T11:54:34;3.40;;;1.00;;
66663;SDS011;59683;51.428;-1.994;2023-04-16T11:57:00;1.87;;;0.57;;
66663;SDS011;59683;51.428;-1.994;2023-04-16T11:59:28;4.57;;;0.60;;
66663;SDS011;59683;51.428;-1.994;2023-04-16T12:01:54;3.77;;;0.77;;
66663;SDS011;59683;51.428;-1.994;2023-04-16T12:04:26;2.30;;;0.93;;
66663;SDS011;59683;51.428;-1.994;2023-04-16T12:09:36;2.07;;;0.70;;
66663;SDS011;59683;51.428;-1.994;2023-04-16T12:12:03;6.03;;;1.10;;
66663;SDS011;59683;51.428;-1.994;2023-04-16T12:14:29;2.93;;;0.60;;
66663;SDS011;59683;51.428;-1.994;2023-04-16T12:16:56;3.63;;;0.63;;
66663;SDS011;59683;51.428;-1.994;2023-04-16T12:19:56;5.83;;;0.80;;
66663;SDS011;59683;51.428;-1.994;2023-04-16T12:22:30;9.63;;;1.13;;
66663;SDS011;59683;51.428;-1.994;2023-04-16T12:25:00;4.30;;;1.00;;
66663;SDS011;59683;51.428;-1.994;2023-04-16T12:30:16;5.03;;;1.00;;
66663;SDS011;59683;51.428;-1.994;2023-04-16T12:32:44;3.53;;;0.70;;
66663;SDS011;59683;51.428;-1.994;2023-04-16T12:35:11;5.73;;;0.93;;
66663;SDS011;59683;51.428;-1.994;2023-04-16T12:37:37;3.73;;;1.13;;
66663;SDS011;59683;51.428;-1.994;2023-04-16T12:40:04;6.30;;;1.37;;
66663;SDS011;59683;51.428;-1.994;2023-04-16T12:42:30;11.10;;;1.10;;
66663;SDS011;59683;51.428;-1.994;2023-04-16T12:45:00;7.18;;;1.10;;
66663;SDS011;59683;51.428;-1.994;2023-04-16T12:47:27;2.97;;;0.80;;
66663;SDS011;59683;51.428;-1.994;2023-04-16T12:49:53;6.93;;;2.93;;
66663;SDS011;59683;51.428;-1.994;2023-04-16T12:52:20;7.37;;;2.10;;
66663;SDS011;59683;51.428;-1.994;2023-04-16T12:54:46;5.47;;;1.43;;
66663;SDS011;59683;51.428;-1.994;2023-04-16T12:57:11;7.00;;;2.83;;
66663;SDS011;59683;51.428;-1.994;2023-04-16T12:59:37;5.80;;;1.50;;
66663;SDS011;59683;51.428;-1.994;2023-04-16T13:02:02;2.73;;;0.80;;
66663;SDS011;59683;51.428;-1.994;2023-04-16T13:04:28;3.67;;;0.67;;
66663;SDS011;59683;51.428;-1.994;2023-04-16T13:06:53;4.90;;;0.80;;
66663;SDS011;59683;51.428;-1.994;2023-04-16T13:09:18;4.90;;;1.00;;
66663;SDS011;59683;51.428;-1.994;2023-04-16T13:11:44;4.50;;;0.83;;
66663;SDS011;59683;51.428;-1.994;2023-04-16T13:14:09;2.30;;;0.70;;
66663;SDS011;59683;51.428;-1.994;2023-04-16T13:16:35;3.87;;;0.80;;
66663;SDS011;59683;51.428;-1.994;2023-04-16T13:19:02;4.43;;;0.63;;
66663;SDS011;59683;51.428;-1.994;2023-04-16T13:21:28;4.97;;;0.80;;
66663;SDS011;59683;51.428;-1.994;2023-04-16T13:23:53;2.17;;;0.43;;
66663;SDS011;59683;51.428;-1.994;2023-04-16T13:26:19;6.27;;;0.57;;
66663;SDS011;59683;51.428;-1.994;2023-04-16T13:28:44;2.33;;;0.60;;
66663;SDS011;59683;51.428;-1.994;2023-04-16T13:31:10;2.07;;;0.50;;
66663;SDS011;59683;51.428;-1.994;2023-04-16T13:33:36;1.63;;;0.50;;
66663;SDS011;59683;51.428;-1.994;2023-04-16T13:36:02;1.60;;;0.50;;
66663;SDS011;59683;51.428;-1.994;2023-04-16T13:38:27;2.00;;;0.40;;
66663;SDS011;59683;51.428;-1.994;2023-04-16T13:40:53;1.67;;;0.50;;
66663;SDS011;59683;51.428;-1.994;2023-04-16T13:43:18;1.53;;;0.40;;
66663;SDS011;59683;51.428;-1.994;2023-04-16T13:45:43;2.13;;;0.40;;
66663;SDS011;59683;51.428;-1.994;2023-04-16T13:48:09;4.90;;;0.50;;
66663;SDS011;59683;51.428;-1.994;2023-04-16T13:50:35;1.77;;;0.73;;
66663;SDS011;59683;51.428;-1.994;2023-04-16T13:53:00;4.00;;;1.83;;
66663;SDS011;59683;51.428;-1.994;2023-04-16T13:55:26;2.03;;;0.47;;
66663;SDS011;59683;51.428;-1.994;2023-04-16T13:57:52;2.97;;;0.40;;
66663;SDS011;59683;51.428;-1.994;2023-04-16T14:00:17;3.77;;;0.93;;
66663;SDS011;59683;51.428;-1.994;2023-04-16T14:02:43;6.37;;;0.70;;
66663;SDS011;59683;51.428;-1.994;2023-04-16T14:05:10;4.00;;;0.93;;
66663;SDS011;59683;51.428;-1.994;2023-04-16T14:07:36;4.80;;;0.67;;
66663;SDS011;59683;51.428;-1.994;2023-04-16T14:10:01;3.43;;;0.97;;
66663;SDS011;59683;51.428;-1.994;2023-04-16T14:12:26;2.20;;;0.60;;
66663;SDS011;59683;51.428;-1.994;2023-04-16T14:14:52;7.77;;;2.93;;
66663;SDS011;59683;51.428;-1.994;2023-04-16T14:17:17;4.67;;;2.03;;
66663;SDS011;59683;51.428;-1.994;2023-04-16T14:19:43;5.80;;;1.40;;
66663;SDS011;59683;51.428;-1.994;2023-04-16T14:22:08;6.83;;;3.27;;
66663;SDS011;59683;51.428;-1.994;2023-04-16T14:24:34;4.17;;;1.60;;
66663;SDS011;59683;51.428;-1.994;2023-04-16T14:26:59;6.83;;;1.20;;
66663;SDS011;59683;51.428;-1.994;2023-04-16T14:29:24;4.80;;;1.67;;
66663;SDS011;59683;51.428;-1.994;2023-04-16T14:31:50;8.10;;;1.10;;
66663;SDS011;59683;51.428;-1.994;2023-04-16T14:34:16;6.57;;;1.63;;
66663;SDS011;59683;51.428;-1.994;2023-04-16T14:36:41;5.53;;;0.70;;
66663;SDS011;59683;51.428;-1.994;2023-04-16T14:39:07;6.80;;;0.80;;
66663;SDS011;59683;51.428;-1.994;2023-04-16T14:41:33;6.17;;;1.53;;
66663;SDS011;59683;51.428;-1.994;2023-04-16T14:43:58;5.03;;;1.03;;
66663;SDS011;59683;51.428;-1.994;2023-04-16T14:46:24;4.67;;;0.90;;
66663;SDS011;59683;51.428;-1.994;2023-04-16T14:48:51;5.30;;;1.33;;
66663;SDS011;59683;51.428;-1.994;2023-04-16T14:51:16;7.40;;;1.40;;
66663;SDS011;59683;51.428;-1.994;2023-04-16T14:53:42;9.67;;;1.30;;
66663;SDS011;59683;51.428;-1.994;2023-04-16T14:56:07;5.60;;;1.17;;
66663;SDS011;59683;51.428;-1.994;2023-04-16T14:58:34;10.43;;;3.50;;
66663;SDS011;59683;51.428;-1.994;2023-04-16T15:01:00;4.90;;;1.23;;
66663;SDS011;59683;51.428;-1.994;2023-04-16T15:03:25;6.37;;;0.77;;
66663;SDS011;59683;51.428;-1.994;2023-04-16T15:05:51;3.20;;;0.67;;
66663;SDS011;59683;51.428;-1.994;2023-04-16T15:08:23;6.03;;;1.20;;
66663;SDS011;59683;51.428;-1.994;2023-04-16T15:10:48;4.97;;;0.90;;
66663;SDS011;59683;51.428;-1.994;2023-04-16T15:13:14;4.80;;;0.90;;
66663;SDS011;59683;51.428;-1.994;2023-04-16T15:15:40;4.70;;;0.67;;
66663;SDS011;59683;51.428;-1.994;2023-04-16T15:18:06;7.43;;;0.90;;
66663;SDS011;59683;51.428;-1.994;2023-04-16T15:20:31;5.23;;;0.90;;
66663;SDS011;59683;51.428;-1.994;2023-04-16T15:22:56;8.93;;;1.37;;
66663;SDS011;59683;51.428;-1.994;2023-04-16T15:25:22;5.33;;;1.10;;
66663;SDS011;59683;51.428;-1.994;2023-04-16T15:27:49;5.67;;;1.00;;
66663;SDS011;59683;51.428;-1.994;2023-04-16T15:30:14;7.40;;;1.27;;
66663;SDS011;59683;51.428;-1.994;2023-04-16T15:32:42;9.63;;;1.63;;
66663;SDS011;59683;51.428;-1.994;2023-04-16T15:35:08;9.80;;;1.83;;
66663;SDS011;59683;51.428;-1.994;2023-04-16T15:37:33;7.60;;;1.03;;
66663;SDS011;59683;51.428;-1.994;2023-04-16T15:39:58;6.53;;;1.20;;
66663;SDS011;59683;51.428;-1.994;2023-04-16T15:42:24;6.10;;;1.17;;
66663;SDS011;59683;51.428;-1.994;2023-04-16T15:44:49;3.40;;;1.00;;
66663;SDS011;59683;51.428;-1.994;2023-04-16T15:47:15;8.97;;;1.10;;
66663;SDS011;59683;51.428;-1.994;2023-04-16T15:49:40;4.30;;;0.80;;
66663;SDS011;59683;51.428;-1.994;2023-04-16T15:52:06;4.00;;;0.97;;
66663;SDS011;59683;51.428;-1.994;2023-04-16T15:54:31;4.40;;;1.10;;
66663;SDS011;59683;51.428;-1.994;2023-04-16T15:56:57;6.97;;;1.97;;
66663;SDS011;59683;51.428;-1.994;2023-04-16T15:59:23;5.73;;;1.30;;
66663;SDS011;59683;51.428;-1.994;2023-04-16T16:01:49;6.20;;;1.37;;
66663;SDS011;59683;51.428;-1.994;2023-04-16T16:04:15;11.30;;;1.60;;
66663;SDS011;59683;51.428;-1.994;2023-04-16T16:06:40;6.67;;;1.50;;
66663;SDS011;59683;51.428;-1.994;2023-04-16T16:09:06;3.73;;;1.20;;
66663;SDS011;59683;51.428;-1.994;2023-04-16T16:11:32;7.27;;;1.20;;
66663;SDS011;59683;51.428;-1.994;2023-04-16T16:13:58;6.40;;;1.10;;
66663;SDS011;59683;51.428;-1.994;2023-04-16T16:16:27;6.63;;;1.50;;
66663;SDS011;59683;51.428;-1.994;2023-04-16T16:18:53;5.73;;;1.30;;
66663;SDS011;59683;51.428;-1.994;2023-04-16T16:21:18;5.33;;;1.60;;
66663;SDS011;59683;51.428;-1.994;2023-04-16T16:23:44;4.57;;;1.47;;
66663;SDS011;59683;51.428;-1.994;2023-04-16T16:26:09;7.27;;;1.30;;
66663;SDS011;59683;51.428;-1.994;2023-04-16T16:28:35;7.87;;;1.60;;
66663;SDS011;59683;51.428;-1.994;2023-04-16T16:31:02;8.80;;;2.20;;
66663;SDS011;59683;51.428;-1.994;2023-04-16T16:33:28;4.20;;;1.60;;
66663;SDS011;59683;51.428;-1.994;2023-04-16T16:35:54;8.37;;;2.27;;
66663;SDS011;59683;51.428;-1.994;2023-04-16T16:38:19;9.23;;;2.50;;
66663;SDS011;59683;51.428;-1.994;2023-04-16T16:40:45;8.80;;;1.50;;
66663;SDS011;59683;51.428;-1.994;2023-04-16T16:43:10;6.07;;;1.90;;
66663;SDS011;59683;51.428;-1.994;2023-04-16T16:45:36;10.13;;;2.10;;
66663;SDS011;59683;51.428;-1.994;2023-04-16T16:48:02;35.60;;;13.00;;
66663;SDS011;59683;51.428;-1.994;2023-04-16T16:50:29;18.23;;;7.70;;
66663;SDS011;59683;51.428;-1.994;2023-04-16T16:52:59;36.20;;;10.93;;
66663;SDS011;59683;51.428;-1.994;2023-04-16T16:55:25;39.17;;;16.83;;
66663;SDS011;59683;51.428;-1.994;2023-04-16T16:57:50;13.87;;;4.60;;
66663;SDS011;59683;51.428;-1.994;2023-04-16T17:00:16;8.93;;;2.57;;
66663;SDS011;59683;51.428;-1.994;2023-04-16T17:02:44;8.33;;;4.20;;
66663;SDS011;59683;51.428;-1.994;2023-04-16T17:05:10;21.70;;;8.20;;
66663;SDS011;59683;51.428;-1.994;2023-04-16T17:07:36;11.63;;;5.23;;
66663;SDS011;59683;51.428;-1.994;2023-04-16T17:10:03;11.77;;;2.57;;
66663;SDS011;59683;51.428;-1.994;2023-04-16T17:12:29;8.50;;;1.60;;
66663;SDS011;59683;51.428;-1.994;2023-04-16T17:14:55;6.73;;;1.53;;
66663;SDS011;59683;51.428;-1.994;2023-04-16T17:17:20;7.60;;;1.60;;
66663;SDS011;59683;51.428;-1.994;2023-04-16T17:19:46;10.80;;;1.77;;
66663;SDS011;59683;51.428;-1.994;2023-04-16T17:22:11;7.47;;;2.30;;
66663;SDS011;59683;51.428;-1.994;2023-04-16T17:24:36;7.57;;;2.07;;
66663;SDS011;59683;51.428;-1.994;2023-04-16T17:27:02;7.30;;;1.90;;
66663;SDS011;59683;51.428;-1.994;2023-04-16T17:29:28;6.53;;;1.77;;
66663;SDS011;59683;51.428;-1.994;2023-04-16T17:31:54;7.13;;;2.03;;
66663;SDS011;59683;51.428;-1.994;2023-04-16T17:34:20;8.23;;;1.70;;
66663;SDS011;59683;51.428;-1.994;2023-04-16T17:36:45;8.83;;;1.70;;
66663;SDS011;59683;51.428;-1.994;2023-04-16T17:39:11;10.07;;;1.80;;
66663;SDS011;59683;51.428;-1.994;2023-04-16T17:41:37;9.47;;;1.77;;
66663;SDS011;59683;51.428;-1.994;2023-04-16T17:44:02;6.43;;;1.90;;
66663;SDS011;59683;51.428;-1.994;2023-04-16T17:46:28;6.73;;;2.20;;
66663;SDS011;59683;51.428;-1.994;2023-04-16T17:48:53;6.90;;;2.00;;
66663;SDS011;59683;51.428;-1.994;2023-04-16T17:51:18;6.83;;;1.73;;
66663;SDS011;59683;51.428;-1.994;2023-04-16T17:53:44;8.03;;;1.50;;
66663;SDS011;59683;51.428;-1.994;2023-04-16T17:56:10;8.73;;;1.67;;
66663;SDS011;59683;51.428;-1.994;2023-04-16T17:58:37;8.53;;;1.70;;
66663;SDS011;59683;51.428;-1.994;2023-04-16T18:01:03;4.50;;;1.53;;
66663;SDS011;59683;51.428;-1.994;2023-04-16T18:03:29;9.67;;;1.97;;
66663;SDS011;59683;51.428;-1.994;2023-04-16T18:05:55;7.40;;;1.37;;
66663;SDS011;59683;51.428;-1.994;2023-04-16T18:08:21;7.80;;;1.83;;
66663;SDS011;59683;51.428;-1.994;2023-04-16T18:10:47;14.63;;;2.73;;
66663;SDS011;59683;51.428;-1.994;2023-04-16T18:13:13;9.17;;;2.90;;
66663;SDS011;59683;51.428;-1.994;2023-04-16T18:15:38;7.30;;;2.60;;
66663;SDS011;59683;51.428;-1.994;2023-04-16T18:18:04;7.07;;;2.40;;
66663;SDS011;59683;51.428;-1.994;2023-04-16T18:20:29;4.77;;;1.57;;
66663;SDS011;59683;51.428;-1.994;2023-04-16T18:22:55;10.00;;;2.77;;
66663;SDS011;59683;51.428;-1.994;2023-04-16T18:25:20;12.13;;;3.97;;
66663;SDS011;59683;51.428;-1.994;2023-04-16T18:27:46;7.83;;;2.33;;
66663;SDS011;59683;51.428;-1.994;2023-04-16T18:30:12;10.17;;;1.90;;
66663;SDS011;59683;51.428;-1.994;2023-04-16T18:32:37;6.33;;;2.30;;
66663;SDS011;59683;51.428;-1.994;2023-04-16T18:35:04;7.23;;;2.50;;
66663;SDS011;59683;51.428;-1.994;2023-04-16T18:37:30;7.50;;;1.33;;
66663;SDS011;59683;51.428;-1.994;2023-04-16T18:39:56;6.17;;;1.90;;
66663;SDS011;59683;51.428;-1.994;2023-04-16T18:42:21;7.37;;;1.80;;
66663;SDS011;59683;51.428;-1.994;2023-04-16T18:44:53;8.77;;;3.07;;
66663;SDS011;59683;51.428;-1.994;2023-04-16T18:47:19;9.63;;;4.00;;
66663;SDS011;59683;51.428;-1.994;2023-04-16T18:49:44;6.83;;;2.07;;
66663;SDS011;59683;51.428;-1.994;2023-04-16T18:52:10;11.87;;;2.87;;
66663;SDS011;59683;51.428;-1.994;2023-04-16T18:54:36;10.40;;;2.07;;
66663;SDS011;59683;51.428;-1.994;2023-04-16T18:57:01;6.57;;;2.30;;
66663;SDS011;59683;51.428;-1.994;2023-04-16T18:59:27;7.83;;;1.57;;
66663;SDS011;59683;51.428;-1.994;2023-04-16T19:01:53;7.10;;;2.70;;
66663;SDS011;59683;51.428;-1.994;2023-04-16T19:04:18;12.40;;;3.60;;
66663;SDS011;59683;51.428;-1.994;2023-04-16T19:06:44;10.50;;;3.03;;
66663;SDS011;59683;51.428;-1.994;2023-04-16T19:09:09;11.37;;;2.10;;
66663;SDS011;59683;51.428;-1.994;2023-04-16T19:11:35;10.13;;;3.50;;
66663;SDS011;59683;51.428;-1.994;2023-04-16T19:14:01;11.87;;;4.57;;
66663;SDS011;59683;51.428;-1.994;2023-04-16T19:16:27;7.73;;;2.40;;
66663;SDS011;59683;51.428;-1.994;2023-04-16T19:18:53;6.50;;;1.93;;
66663;SDS011;59683;51.428;-1.994;2023-04-16T19:21:19;14.70;;;3.43;;
66663;SDS011;59683;51.428;-1.994;2023-04-16T19:23:44;16.53;;;6.50;;
66663;SDS011;59683;51.428;-1.994;2023-04-16T19:26:10;13.73;;;4.87;;
66663;SDS011;59683;51.428;-1.994;2023-04-16T19:28:35;15.33;;;8.37;;
66663;SDS011;59683;51.428;-1.994;2023-04-16T19:31:02;13.00;;;6.37;;
66663;SDS011;59683;51.428;-1.994;2023-04-16T19:33:28;16.97;;;8.10;;
66663;SDS011;59683;51.428;-1.994;2023-04-16T19:35:53;19.33;;;7.80;;
66663;SDS011;59683;51.428;-1.994;2023-04-16T19:38:19;15.83;;;7.80;;
66663;SDS011;59683;51.428;-1.994;2023-04-16T19:40:45;13.40;;;6.80;;
66663;SDS011;59683;51.428;-1.994;2023-04-16T19:43:12;22.00;;;10.43;;
66663;SDS011;59683;51.428;-1.994;2023-04-16T19:45:44;17.80;;;8.70;;
66663;SDS011;59683;51.428;-1.994;2023-04-16T19:48:11;11.33;;;8.07;;
66663;SDS011;59683;51.428;-1.994;2023-04-16T19:50:37;15.37;;;6.97;;
66663;SDS011;59683;51.428;-1.994;2023-04-16T19:53:04;17.87;;;7.97;;
66663;SDS011;59683;51.428;-1.994;2023-04-16T19:55:30;19.00;;;7.17;;
66663;SDS011;59683;51.428;-1.994;2023-04-16T19:57:55;15.73;;;8.27;;
66663;SDS011;59683;51.428;-1.994;2023-04-16T20:00:21;16.60;;;7.33;;
66663;SDS011;59683;51.428;-1.994;2023-04-16T20:02:47;11.47;;;5.63;;
66663;SDS011;59683;51.428;-1.994;2023-04-16T20:05:12;12.87;;;3.00;;
66663;SDS011;59683;51.428;-1.994;2023-04-16T20:07:38;13.43;;;3.10;;
66663;SDS011;59683;51.428;-1.994;2023-04-16T20:10:03;8.50;;;2.73;;
66663;SDS011;59683;51.428;-1.994;2023-04-16T20:12:29;8.33;;;3.00;;
66663;SDS011;59683;51.428;-1.994;2023-04-16T20:14:54;11.00;;;3.17;;
66663;SDS011;59683;51.428;-1.994;2023-04-16T20:17:20;8.83;;;3.47;;
66663;SDS011;59683;51.428;-1.994;2023-04-16T20:19:45;13.67;;;3.33;;
66663;SDS011;59683;51.428;-1.994;2023-04-16T20:22:11;7.27;;;2.37;;
66663;SDS011;59683;51.428;-1.994;2023-04-16T20:24:38;8.17;;;2.67;;
66663;SDS011;59683;51.428;-1.994;2023-04-16T20:27:04;8.37;;;2.30;;
66663;SDS011;59683;51.428;-1.994;2023-04-16T20:29:29;8.70;;;2.23;;
66663;SDS011;59683;51.428;-1.994;2023-04-16T20:31:55;9.97;;;2.70;;
66663;SDS011;59683;51.428;-1.994;2023-04-16T20:34:20;8.07;;;4.40;;
66663;SDS011;59683;51.428;-1.994;2023-04-16T20:36:45;12.70;;;3.70;;
66663;SDS011;59683;51.428;-1.994;2023-04-16T20:39:11;8.27;;;4.93;;
66663;SDS011;59683;51.428;-1.994;2023-04-16T20:41:36;6.13;;;2.13;;
66663;SDS011;59683;51.428;-1.994;2023-04-16T20:44:07;6.97;;;3.00;;
66663;SDS011;59683;51.428;-1.994;2023-04-16T20:46:34;13.50;;;2.70;;
66663;SDS011;59683;51.428;-1.994;2023-04-16T20:49:02;8.30;;;3.00;;
66663;SDS011;59683;51.428;-1.994;2023-04-16T20:51:28;9.43;;;2.93;;
66663;SDS011;59683;51.428;-1.994;2023-04-16T20:53:53;9.13;;;2.90;;
66663;SDS011;59683;51.428;-1.994;2023-04-16T20:56:18;5.43;;;2.10;;
66663;SDS011;59683;51.428;-1.994;2023-04-16T20:58:44;7.20;;;2.53;;
66663;SDS011;59683;51.428;-1.994;2023-04-16T21:01:10;9.60;;;2.40;;
66663;SDS011;59683;51.428;-1.994;2023-04-16T21:03:35;5.00;;;1.97;;
66663;SDS011;59683;51.428;-1.994;2023-04-16T21:06:01;6.03;;;1.90;;
66663;SDS011;59683;51.428;-1.994;2023-04-16T21:08:27;10.83;;;2.27;;
66663;SDS011;59683;51.428;-1.994;2023-04-16T21:10:53;8.37;;;2.40;;
66663;SDS011;59683;51.428;-1.994;2023-04-16T21:13:18;7.90;;;2.10;;
66663;SDS011;59683;51.428;-1.994;2023-04-16T21:15:45;9.17;;;2.23;;
66663;SDS011;59683;51.428;-1.994;2023-04-16T21:18:10;11.70;;;2.67;;
66663;SDS011;59683;51.428;-1.994;2023-04-16T21:20:36;9.43;;;1.80;;
66663;SDS011;59683;51.428;-1.994;2023-04-16T21:23:03;9.67;;;2.87;;
66663;SDS011;59683;51.428;-1.994;2023-04-16T21:25:29;9.87;;;2.50;;
66663;SDS011;59683;51.428;-1.994;2023-04-16T21:27:55;5.90;;;2.20;;
66663;SDS011;59683;51.428;-1.994;2023-04-16T21:30:21;9.93;;;2.40;;
66663;SDS011;59683;51.428;-1.994;2023-04-16T21:32:46;4.63;;;1.70;;
66663;SDS011;59683;51.428;-1.994;2023-04-16T21:35:12;8.20;;;2.13;;
66663;SDS011;59683;51.428;-1.994;2023-04-16T21:37:37;6.67;;;2.40;;
66663;SDS011;59683;51.428;-1.994;2023-04-16T21:40:03;9.97;;;2.30;;
66663;SDS011;59683;51.428;-1.994;2023-04-16T21:42:30;7.07;;;2.00;;
66663;SDS011;59683;51.428;-1.994;2023-04-16T21:44:56;6.70;;;2.20;;
66663;SDS011;59683;51.428;-1.994;2023-04-16T21:47:21;9.20;;;2.33;;
66663;SDS011;59683;51.428;-1.994;2023-04-16T21:49:47;8.77;;;2.57;;
66663;SDS011;59683;51.428;-1.994;2023-04-16T21:52:12;6.33;;;2.47;;
66663;SDS011;59683;51.428;-1.994;2023-04-16T21:54:44;7.10;;;2.10;;
66663;SDS011;59683;51.428;-1.994;2023-04-16T21:57:09;8.43;;;2.47;;
66663;SDS011;59683;51.428;-1.994;2023-04-16T21:59:35;7.43;;;2.70;;
66663;SDS011;59683;51.428;-1.994;2023-04-16T22:02:01;6.10;;;2.03;;
66663;SDS011;59683;51.428;-1.994;2023-04-16T22:04:26;6.33;;;2.10;;
66663;SDS011;59683;51.428;-1.994;2023-04-16T22:07:01;8.97;;;2.77;;
66663;SDS011;59683;51.428;-1.994;2023-04-16T22:09:27;6.13;;;2.10;;
66663;SDS011;59683;51.428;-1.994;2023-04-16T22:11:53;6.80;;;1.73;;
66663;SDS011;59683;51.428;-1.994;2023-04-16T22:14:22;7.17;;;2.10;;
66663;SDS011;59683;51.428;-1.994;2023-04-16T22:16:47;7.73;;;2.43;;
66663;SDS011;59683;51.428;-1.994;2023-04-16T22:19:15;5.77;;;2.07;;